createdAt,value
2022-12-08T00:01:07.455Z,0.59
2022-12-08T00:03:35.066Z,0.61
2022-12-08T00:06:21.853Z,0.70
2022-12-08T00:09:07.340Z,0.70
2022-12-08T00:11:34.055Z,0.70
2022-12-08T00:14:01.141Z,0.73
2022-12-08T00:16:30.146Z,0.74
2022-12-08T00:18:56.723Z,0.77
2022-12-08T00:21:24.453Z,0.79
2022-12-08T00:23:51.027Z,0.81
2022-12-08T00:26:17.599Z,0.82
2022-12-08T00:28:44.180Z,0.85
2022-12-08T00:31:11.942Z,0.87
2022-12-08T00:33:38.850Z,0.89
2022-12-08T00:36:10.113Z,0.91
2022-12-08T00:38:38.098Z,0.92
2022-12-08T00:41:11.910Z,0.94
2022-12-08T00:43:38.545Z,0.97
2022-12-08T00:46:07.462Z,0.99
2022-12-08T00:48:34.740Z,0.99
2022-12-08T00:51:01.421Z,1.00
2022-12-08T00:53:28.199Z,1.05
2022-12-08T00:55:54.761Z,1.06
2022-12-08T00:58:21.432Z,1.05
2022-12-08T01:00:48.049Z,1.09
2022-12-08T01:03:14.761Z,1.06
2022-12-08T01:05:41.376Z,1.11
2022-12-08T01:08:08.846Z,1.06
2022-12-08T01:10:36.818Z,1.11
2022-12-08T01:13:03.890Z,1.09
2022-12-08T01:15:30.537Z,1.07
2022-12-08T01:17:57.132Z,1.10
2022-12-08T01:20:23.784Z,1.09
2022-12-08T01:22:50.358Z,1.12
2022-12-08T01:25:16.963Z,1.09
2022-12-08T01:27:43.540Z,1.09
2022-12-08T01:30:10.630Z,1.02
2022-12-08T01:32:37.251Z,1.04
2022-12-08T01:35:03.934Z,0.99
2022-12-08T01:37:30.589Z,0.95
2022-12-08T01:39:57.162Z,0.94
2022-12-08T01:42:25.523Z,0.92
2022-12-08T01:45:04.431Z,0.92
2022-12-08T01:47:36.604Z,0.88
2022-12-08T01:50:06.175Z,0.82
2022-12-08T01:52:39.349Z,0.80
2022-12-08T01:55:24.338Z,0.81
2022-12-08T01:57:58.728Z,0.88
2022-12-08T02:00:25.357Z,0.85
2022-12-08T02:03:11.188Z,0.85
2022-12-08T02:05:40.375Z,0.83
2022-12-08T02:08:10.169Z,0.82
2022-12-08T02:10:40.171Z,0.82
2022-12-08T02:13:11.077Z,0.87
2022-12-08T02:15:55.772Z,0.88
2022-12-08T02:18:34.505Z,0.93
2022-12-08T02:21:11.985Z,0.95
2022-12-08T02:23:54.047Z,0.96
2022-12-08T02:26:57.990Z,0.97
2022-12-08T02:30:01.909Z,0.96
2022-12-08T02:32:56.305Z,0.96
2022-12-08T02:39:03.051Z,0.97
2022-12-08T02:41:41.312Z,0.97
2022-12-08T02:44:30.355Z,1.00
2022-12-08T02:47:11.429Z,1.07
2022-12-08T02:49:38.118Z,1.08
2022-12-08T02:52:28.278Z,1.06
2022-12-08T02:55:02.289Z,1.11
2022-12-08T02:57:43.585Z,1.08
2022-12-08T03:00:13.844Z,1.04
2022-12-08T03:02:59.398Z,0.98
2022-12-08T03:06:02.826Z,0.95
2022-12-08T03:08:48.697Z,0.94
2022-12-08T03:11:25.820Z,0.92
2022-12-08T03:13:58.297Z,0.93
2022-12-08T03:16:28.231Z,0.94
2022-12-08T03:19:09.660Z,0.97
2022-12-08T03:21:39.374Z,0.95
2022-12-08T03:24:09.436Z,1.02
2022-12-08T03:26:47.357Z,0.99
2022-12-08T03:29:14.410Z,0.97
2022-12-08T03:31:48.819Z,0.97
2022-12-08T03:34:17.353Z,0.97
2022-12-08T03:36:45.196Z,0.98
2022-12-08T03:39:11.807Z,0.99
2022-12-08T03:41:38.419Z,1.00
2022-12-08T03:44:05.257Z,1.01
2022-12-08T03:46:31.873Z,1.04
2022-12-08T03:48:58.633Z,1.05
2022-12-08T03:51:27.307Z,1.08
2022-12-08T03:53:54.154Z,1.16
2022-12-08T03:56:46.900Z,1.14
2022-12-08T03:59:13.461Z,1.15
2022-12-08T04:01:40.077Z,1.17
2022-12-08T04:04:06.714Z,1.18
2022-12-08T04:06:33.364Z,1.18
2022-12-08T04:09:00.854Z,1.22
2022-12-08T04:11:27.416Z,1.23
2022-12-08T04:13:53.955Z,1.24
2022-12-08T04:16:25.422Z,1.24
2022-12-08T04:18:52.550Z,1.23
2022-12-08T04:21:19.102Z,1.24
2022-12-08T04:23:46.497Z,1.27
2022-12-08T04:26:13.770Z,1.24
2022-12-08T04:28:40.408Z,1.23
2022-12-08T04:31:07.061Z,1.24
2022-12-08T04:33:35.258Z,1.23
2022-12-08T04:36:03.588Z,1.22
2022-12-08T04:38:30.210Z,1.22
2022-12-08T04:40:56.872Z,1.22
2022-12-08T04:43:23.538Z,1.21
2022-12-08T04:45:50.398Z,1.22
2022-12-08T04:48:17.579Z,1.22
2022-12-08T04:50:45.307Z,1.25
2022-12-08T04:53:13.234Z,1.25
2022-12-08T04:55:44.906Z,1.25
2022-12-08T04:58:17.324Z,1.21
2022-12-08T05:00:44.255Z,1.20
2022-12-08T05:03:11.245Z,1.19
2022-12-08T05:05:38.079Z,1.14
2022-12-08T05:08:05.318Z,1.11
2022-12-08T05:10:32.854Z,1.10
2022-12-08T05:13:00.167Z,1.08
2022-12-08T05:15:26.904Z,1.06
2022-12-08T05:17:53.612Z,1.04
2022-12-08T05:20:21.899Z,1.02
2022-12-08T05:22:48.485Z,1.00
2022-12-08T05:25:15.107Z,0.98
2022-12-08T05:27:42.152Z,0.94
2022-12-08T05:30:09.014Z,0.94
2022-12-08T05:32:35.642Z,0.93
2022-12-08T05:35:02.247Z,0.90
2022-12-08T05:37:28.915Z,0.90
2022-12-08T05:39:55.501Z,0.89
2022-12-08T05:42:24.899Z,0.88
2022-12-08T05:44:52.080Z,0.85
2022-12-08T05:47:18.721Z,0.80
2022-12-08T05:49:45.812Z,0.77
2022-12-08T05:52:12.381Z,0.74
2022-12-08T05:54:38.990Z,0.73
2022-12-08T05:57:05.591Z,0.70
2022-12-08T05:59:32.224Z,0.66
2022-12-08T06:01:58.869Z,0.62
2022-12-08T06:04:25.516Z,0.61
2022-12-08T06:06:52.509Z,0.60
2022-12-08T06:09:19.112Z,0.58
2022-12-08T06:11:47.225Z,0.56
2022-12-08T06:14:14.042Z,0.56
2022-12-08T06:16:40.948Z,0.57
2022-12-08T06:19:07.623Z,0.59
2022-12-08T06:21:34.296Z,0.59
2022-12-08T06:24:00.917Z,0.56
2022-12-08T06:26:27.551Z,0.59
2022-12-08T06:28:54.207Z,0.59
2022-12-08T06:31:24.110Z,0.61
2022-12-08T06:33:51.713Z,0.63
2022-12-08T06:36:20.571Z,0.65
2022-12-08T06:38:47.693Z,0.67
2022-12-08T06:41:14.778Z,0.70
2022-12-08T06:43:42.606Z,0.75
2022-12-08T06:46:12.581Z,0.80
2022-12-08T06:48:39.313Z,0.83
2022-12-08T06:51:17.672Z,0.88
2022-12-08T06:53:45.208Z,0.88
2022-12-08T06:56:13.187Z,0.89
2022-12-08T06:58:40.028Z,0.87
2022-12-08T07:01:06.673Z,0.87
2022-12-08T07:03:33.773Z,0.88
2022-12-08T07:06:04.024Z,0.88
2022-12-08T07:08:31.867Z,0.92
2022-12-08T07:48:14.334Z,1.38
2022-12-08T07:50:45.267Z,1.41
2022-12-08T07:53:12.249Z,1.46
2022-12-08T07:55:42.815Z,1.50
2022-12-08T07:58:09.768Z,1.57
2022-12-08T08:00:36.689Z,1.63
2022-12-08T08:03:03.478Z,1.69
2022-12-08T08:05:30.394Z,1.78
2022-12-08T08:07:57.054Z,1.88
2022-12-08T08:10:23.672Z,2.01
2022-12-08T08:12:50.305Z,2.16
2022-12-08T08:15:17.977Z,2.32
2022-12-08T08:17:44.544Z,2.42
2022-12-08T08:20:11.599Z,2.54
2022-12-08T08:22:38.207Z,2.64
2022-12-08T08:25:05.783Z,2.75
2022-12-08T08:27:32.365Z,2.82
2022-12-08T08:29:58.961Z,2.83
2022-12-08T08:32:25.576Z,2.98
2022-12-08T08:34:52.355Z,3.09
2022-12-08T08:37:19.085Z,3.14
2022-12-08T08:39:45.748Z,3.18
2022-12-08T08:42:12.315Z,3.21
2022-12-08T08:44:39.176Z,3.14
2022-12-08T08:47:05.931Z,3.20
2022-12-08T08:49:32.628Z,3.20
2022-12-08T08:51:59.231Z,3.25
2022-12-08T08:54:25.851Z,3.23
2022-12-08T08:56:52.803Z,3.25
2022-12-08T08:59:19.403Z,3.30
2022-12-08T09:01:46.214Z,3.40
2022-12-08T09:04:12.869Z,3.56
2022-12-08T09:06:39.905Z,3.69
2022-12-08T09:09:06.712Z,3.66
2022-12-08T09:11:33.365Z,4.04
2022-12-08T09:14:00.044Z,4.15
2022-12-08T09:16:27.200Z,4.45
2022-12-08T09:18:54.006Z,4.52
2022-12-08T09:21:23.911Z,4.89
2022-12-08T09:23:53.150Z,5.11
2022-12-08T09:26:22.484Z,5.27
2022-12-08T09:28:50.955Z,5.36
2022-12-08T09:31:19.171Z,5.41
2022-12-08T09:33:47.619Z,5.22
2022-12-08T09:36:14.316Z,5.11
2022-12-08T09:38:41.361Z,5.29
2022-12-08T09:41:17.896Z,5.18
2022-12-08T09:44:12.067Z,4.96
2022-12-08T09:46:39.497Z,4.80
2022-12-08T09:49:14.190Z,4.48
2022-12-08T09:51:44.173Z,4.47
2022-12-08T09:54:37.316Z,4.54
2022-12-08T09:57:11.151Z,4.53
2022-12-08T09:59:37.843Z,4.28
2022-12-08T10:02:21.376Z,4.41
2022-12-08T10:04:48.339Z,4.27
2022-12-08T10:07:23.896Z,4.14
2022-12-08T10:09:56.377Z,3.89
2022-12-08T10:12:41.687Z,3.84
2022-12-08T10:15:17.321Z,3.93
2022-12-08T10:17:49.568Z,3.87
2022-12-08T10:20:18.712Z,3.80
2022-12-08T10:22:50.948Z,3.92
2022-12-08T10:25:22.370Z,3.96
2022-12-08T10:27:54.160Z,3.97
2022-12-08T10:30:22.448Z,3.91
2022-12-08T10:32:51.058Z,3.92
2022-12-08T10:35:19.613Z,3.98
2022-12-08T10:38:00.752Z,4.18
2022-12-08T10:40:30.789Z,4.42
2022-12-08T10:43:00.157Z,4.70
2022-12-08T10:45:28.880Z,4.79
2022-12-08T10:48:00.166Z,4.65
2022-12-08T10:50:36.700Z,4.59
2022-12-08T10:53:25.374Z,4.55
2022-12-08T10:56:05.463Z,4.49
2022-12-08T10:58:37.410Z,4.39
2022-12-08T11:01:17.208Z,4.15
2022-12-08T11:03:59.902Z,4.30
2022-12-08T11:06:29.174Z,4.24
2022-12-08T11:08:58.637Z,4.12
2022-12-08T11:11:47.968Z,4.06
2022-12-08T11:14:28.905Z,4.20
2022-12-08T11:17:04.556Z,4.28
2022-12-08T11:19:31.389Z,4.18
2022-12-08T11:21:57.955Z,4.10
2022-12-08T11:24:31.224Z,4.02
2022-12-08T11:27:04.501Z,4.07
2022-12-08T11:29:35.528Z,4.04
2022-12-08T11:32:14.640Z,4.07
2022-12-08T11:34:41.638Z,4.09
2022-12-08T11:37:16.843Z,4.09
2022-12-08T11:39:49.398Z,4.10
2022-12-08T11:42:20.706Z,4.00
2022-12-08T11:44:53.064Z,4.09
2022-12-08T11:47:28.737Z,4.15
2022-12-08T11:50:18.042Z,3.99
2022-12-08T11:52:49.907Z,4.05
2022-12-08T11:55:37.273Z,4.09
2022-12-08T11:58:21.456Z,4.12
2022-12-08T12:00:48.295Z,4.12
2022-12-08T12:03:30.009Z,4.07
2022-12-08T12:06:38.159Z,4.39
2022-12-08T12:09:19.696Z,4.54
2022-12-08T12:12:27.882Z,4.16
2022-12-08T12:15:33.339Z,4.26
2022-12-08T12:18:19.897Z,4.18
2022-12-08T12:20:57.350Z,4.31
2022-12-08T12:23:39.488Z,4.21
2022-12-08T12:26:09.061Z,4.28
2022-12-08T12:29:04.005Z,4.08
2022-12-08T12:31:37.315Z,4.01
2022-12-08T12:34:15.385Z,3.88
2022-12-08T12:36:49.864Z,3.98
2022-12-08T12:39:20.167Z,4.06
2022-12-08T12:41:52.850Z,4.08
2022-12-08T12:44:19.385Z,4.07
2022-12-08T12:46:48.968Z,4.10
2022-12-08T12:49:40.290Z,4.10
2022-12-08T12:52:07.132Z,4.08
2022-12-08T12:54:33.834Z,4.07
2022-12-08T12:57:09.834Z,4.03
2022-12-08T12:59:44.054Z,4.03
2022-12-08T13:02:31.452Z,3.96
2022-12-08T13:05:13.342Z,3.94
2022-12-08T13:07:50.412Z,4.01
2022-12-08T13:10:22.280Z,3.95
2022-12-08T13:13:10.754Z,3.82
2022-12-08T13:15:40.520Z,3.72
2022-12-08T13:18:19.611Z,3.68
2022-12-08T13:20:50.793Z,3.62
2022-12-08T13:23:45.241Z,3.57
2022-12-08T13:26:25.902Z,3.52
2022-12-08T13:29:04.297Z,3.48
2022-12-08T13:31:52.253Z,3.43
2022-12-08T13:34:55.158Z,3.40
2022-12-08T13:37:53.942Z,3.34
2022-12-08T13:40:28.184Z,3.29
2022-12-08T13:43:20.122Z,3.30
2022-12-08T13:46:52.559Z,3.31
2022-12-08T13:57:29.228Z,3.29
2022-12-08T14:00:14.874Z,3.25
2022-12-08T14:02:47.858Z,3.23
2022-12-08T14:05:20.396Z,3.16
2022-12-08T14:07:55.249Z,3.14
2022-12-08T14:10:32.356Z,3.10
2022-12-08T14:13:06.637Z,3.04
2022-12-08T14:15:37.614Z,3.03
2022-12-08T14:18:05.941Z,3.00
2022-12-08T14:20:52.007Z,2.96
2022-12-08T14:23:21.326Z,2.89
2022-12-08T14:25:48.540Z,2.83
2022-12-08T14:28:15.204Z,2.80
2022-12-08T14:30:41.918Z,2.75
2022-12-08T14:33:13.805Z,2.67
2022-12-08T14:35:40.543Z,2.63
2022-12-08T14:38:18.516Z,2.55
2022-12-08T14:40:47.757Z,2.52
2022-12-08T14:43:17.681Z,2.46
2022-12-08T14:45:44.249Z,2.42
2022-12-08T14:48:36.473Z,2.46
2022-12-08T14:51:21.258Z,2.43
2022-12-08T14:53:59.284Z,2.49
2022-12-08T14:56:38.134Z,2.42
2022-12-08T14:59:13.149Z,2.47
2022-12-08T15:01:40.907Z,2.49
2022-12-08T15:04:12.567Z,2.54
2022-12-08T15:07:02.974Z,2.53
2022-12-08T15:09:44.349Z,2.51
2022-12-08T15:12:13.674Z,2.55
2022-12-08T15:15:04.634Z,2.51
2022-12-08T15:17:40.448Z,2.49
2022-12-08T15:20:28.761Z,2.46
2022-12-08T15:22:59.916Z,2.42
2022-12-08T15:25:26.545Z,2.36
2022-12-08T15:27:57.237Z,2.28
2022-12-08T15:30:26.594Z,2.23
2022-12-08T15:32:54.411Z,2.16
2022-12-08T15:35:21.444Z,2.18
2022-12-08T15:37:48.424Z,2.13
2022-12-08T15:40:21.312Z,2.12
2022-12-08T15:42:49.020Z,2.09
2022-12-08T15:45:17.253Z,2.08
2022-12-08T15:47:45.197Z,2.06
2022-12-08T15:50:18.134Z,1.99
2022-12-08T15:52:45.151Z,1.97
2022-12-08T15:55:16.533Z,1.94
2022-12-08T16:00:54.299Z,1.97
2022-12-08T16:04:19.848Z,1.99
2022-12-08T16:09:15.104Z,2.04
2022-12-08T16:12:09.869Z,2.02
2022-12-08T16:17:25.277Z,1.97
2022-12-08T16:19:51.951Z,1.94
2022-12-08T16:25:20.310Z,1.89
2022-12-08T16:28:05.530Z,1.88
2022-12-08T16:30:35.452Z,1.86
2022-12-08T16:33:02.082Z,1.83
2022-12-08T16:35:28.907Z,1.84
2022-12-08T16:37:55.783Z,1.89
2022-12-08T16:40:22.475Z,1.88
2022-12-08T16:42:50.466Z,1.88
2022-12-08T16:45:26.079Z,1.87
2022-12-08T16:47:55.497Z,1.84
2022-12-08T16:50:23.269Z,1.86
2022-12-08T16:52:55.924Z,1.87
2022-12-08T16:55:22.534Z,1.91
2022-12-08T16:57:49.321Z,1.95
2022-12-08T17:00:20.042Z,2.02
2022-12-08T17:02:46.762Z,2.10
2022-12-08T17:05:15.748Z,2.11
2022-12-08T17:07:44.340Z,2.14
2022-12-08T17:10:14.050Z,2.20
2022-12-08T17:12:42.114Z,2.19
2022-12-08T17:15:13.037Z,2.16
2022-12-08T17:17:39.902Z,2.09
2022-12-08T17:20:18.194Z,2.08
2022-12-08T17:22:45.596Z,2.03
2022-12-08T17:25:13.879Z,1.98
2022-12-08T17:27:41.281Z,1.92
2022-12-08T17:30:09.827Z,1.84
2022-12-08T17:32:37.962Z,1.78
2022-12-08T17:35:05.289Z,1.72
2022-12-08T17:37:34.541Z,1.63
2022-12-08T17:40:01.487Z,1.58
2022-12-08T17:42:28.094Z,1.54
2022-12-08T17:44:56.282Z,1.46
2022-12-08T17:47:25.034Z,1.39
2022-12-08T17:49:53.763Z,1.33
2022-12-08T17:54:53.186Z,1.23
2022-12-08T17:57:19.971Z,1.20
2022-12-08T17:59:46.539Z,1.17
2022-12-08T18:02:13.260Z,1.14
2022-12-08T18:04:40.806Z,1.17
2022-12-08T18:07:07.376Z,1.19
2022-12-08T18:09:34.077Z,1.21
2022-12-08T18:12:00.715Z,1.19
2022-12-08T18:14:27.634Z,1.20
2022-12-08T18:16:54.319Z,1.21
2022-12-08T18:19:20.946Z,1.23
2022-12-08T18:21:47.527Z,1.20
2022-12-08T18:24:22.890Z,1.19
2022-12-08T18:26:52.845Z,1.20
2022-12-08T18:29:20.905Z,1.18
2022-12-08T18:31:47.749Z,1.17
2022-12-08T18:34:14.446Z,1.19
2022-12-08T18:36:41.184Z,1.18
2022-12-08T18:39:11.045Z,1.22
2022-12-08T18:41:37.810Z,1.28
2022-12-08T18:44:04.773Z,1.28
2022-12-08T18:46:31.582Z,1.28
2022-12-08T18:49:02.197Z,1.32
2022-12-08T18:51:28.865Z,1.32
2022-12-08T18:53:55.450Z,1.33
2022-12-08T18:56:30.773Z,1.34
2022-12-08T18:59:03.230Z,1.35
2022-12-08T19:01:36.314Z,1.36
2022-12-08T19:04:28.341Z,1.37
2022-12-08T19:06:53.316Z,1.40
2022-12-08T19:09:21.786Z,1.41
2022-12-08T19:11:48.911Z,1.44
2022-12-08T19:14:15.855Z,1.45
2022-12-08T19:16:42.476Z,1.46
2022-12-08T19:19:12.320Z,1.46
2022-12-08T19:21:44.558Z,1.46
2022-12-08T19:24:12.919Z,1.47
2022-12-08T19:26:39.840Z,1.48
2022-12-08T19:29:06.708Z,1.48
2022-12-08T19:31:33.413Z,1.49
2022-12-08T19:34:00.102Z,1.52
2022-12-08T19:36:27.737Z,1.53
2022-12-08T19:39:12.942Z,1.54
2022-12-08T19:41:58.067Z,1.58
2022-12-08T19:44:46.238Z,1.61
2022-12-08T19:47:13.294Z,1.63
2022-12-08T19:49:40.143Z,1.68
2022-12-08T19:52:08.531Z,1.68
2022-12-08T19:54:35.901Z,1.70
2022-12-08T19:57:02.837Z,1.69
2022-12-08T19:59:30.387Z,1.69
2022-12-08T20:01:58.567Z,1.72
2022-12-08T20:04:27.398Z,1.71
2022-12-08T20:06:55.743Z,1.70
2022-12-08T20:09:23.170Z,1.68
2022-12-08T20:11:50.977Z,1.72
2022-12-08T20:14:21.925Z,1.73
2022-12-08T20:16:48.825Z,1.71
2022-12-08T20:19:15.553Z,1.71
2022-12-08T20:21:42.211Z,1.72
2022-12-08T20:24:08.909Z,1.72
2022-12-08T20:26:36.546Z,1.73
2022-12-08T20:29:03.506Z,1.73
2022-12-08T20:31:31.326Z,1.73
2022-12-08T20:33:58.151Z,1.74
2022-12-08T20:36:24.979Z,1.75
2022-12-08T20:38:53.026Z,1.77
2022-12-08T20:41:23.364Z,1.78
2022-12-08T20:43:51.198Z,1.78
2022-12-08T20:46:19.425Z,1.77
2022-12-08T20:48:46.294Z,1.74
2022-12-08T20:51:18.392Z,1.75
2022-12-08T20:53:45.377Z,1.74
2022-12-08T20:56:21.467Z,1.72
2022-12-08T20:58:49.619Z,1.69
2022-12-08T21:01:19.513Z,1.66
2022-12-08T21:03:47.010Z,1.67
2022-12-08T21:06:14.418Z,1.67
2022-12-08T21:08:42.797Z,1.65
2022-12-08T21:11:10.437Z,1.64
2022-12-08T21:13:37.606Z,1.62
2022-12-08T21:16:05.412Z,1.60
2022-12-08T21:18:38.945Z,1.60
2022-12-08T21:21:10.031Z,1.59
2022-12-08T21:23:37.224Z,1.59
2022-12-08T21:26:11.504Z,1.57
2022-12-08T21:28:38.220Z,1.55
2022-12-08T21:31:09.157Z,1.52
2022-12-08T21:33:36.633Z,1.50
2022-12-08T21:36:14.633Z,1.49
2022-12-08T21:38:41.513Z,1.49
2022-12-08T21:41:13.192Z,1.47
2022-12-08T21:43:41.168Z,1.44
2022-12-08T21:46:15.435Z,1.44
2022-12-08T21:48:42.353Z,1.41
2022-12-08T21:51:09.289Z,1.42
2022-12-08T21:53:35.877Z,1.38
2022-12-08T21:56:02.604Z,1.37
2022-12-08T21:58:32.094Z,1.36
2022-12-08T22:01:05.296Z,1.35
2022-12-08T22:03:32.474Z,1.36
2022-12-08T22:06:11.181Z,1.33
2022-12-08T22:08:38.408Z,1.32
2022-12-08T22:11:05.601Z,1.31
2022-12-08T22:13:36.643Z,1.28
2022-12-08T22:16:06.036Z,1.27
2022-12-08T22:18:34.474Z,1.26
2022-12-08T22:21:01.543Z,1.26
2022-12-08T22:23:28.912Z,1.24
2022-12-08T22:26:00.082Z,1.22
2022-12-08T22:28:28.402Z,1.23
2022-12-08T22:30:55.041Z,1.21
2022-12-08T22:33:21.789Z,1.20
2022-12-08T22:36:02.211Z,1.20
2022-12-08T22:38:31.506Z,1.18
2022-12-08T22:40:58.198Z,1.17
2022-12-08T22:43:25.058Z,1.17
2022-12-08T22:45:51.938Z,1.14
2022-12-08T22:48:18.671Z,1.14
2022-12-08T22:50:45.305Z,1.15
2022-12-08T22:53:12.825Z,1.12
2022-12-08T22:55:46.472Z,1.11
2022-12-08T22:58:13.132Z,1.10
2022-12-08T23:00:40.129Z,1.07
2022-12-08T23:03:06.985Z,1.06
2022-12-08T23:05:38.864Z,1.02
2022-12-08T23:08:07.291Z,1.01
2022-12-08T23:10:35.355Z,0.98
2022-12-08T23:13:04.165Z,1.00
2022-12-08T23:15:31.600Z,1.00
2022-12-08T23:17:58.674Z,1.00
2022-12-08T23:20:25.441Z,1.02
2022-12-08T23:22:52.079Z,1.02
2022-12-08T23:25:19.151Z,1.06
2022-12-08T23:27:46.554Z,1.08
2022-12-08T23:30:26.184Z,1.07
2022-12-08T23:32:56.610Z,1.08
2022-12-08T23:35:23.686Z,1.10
2022-12-08T23:37:50.745Z,1.12
2022-12-08T23:40:17.716Z,1.13
2022-12-08T23:42:44.834Z,1.20
2022-12-08T23:45:12.065Z,1.18
2022-12-08T23:47:39.001Z,1.17
2022-12-08T23:50:07.633Z,1.16
2022-12-08T23:52:34.840Z,1.15
2022-12-08T23:55:01.784Z,1.14
2022-12-08T23:57:28.737Z,1.12
2022-12-08T23:59:55.403Z,1.13
